Time;durP1;ratioP1;P1;durP2;ratioP2;P2;SDS_P1;SDS_P2;PMS_P1;PMS_P2;Temp;Humidity;BMP_temperature;BMP_pressure;BME280_temperature;BME280_humidity;BME280_pressure;Samples;Min_cycle;Max_cycle;Signal;HPM_P1;HPM_P2
2022/04/13 00:01:43;;;;;;;11.07;5.88;;;;;;;11.78;73.28;98975.16;4995889;28;20053;-52
2022/04/13 00:04:08;;;;;;;8.93;5.80;;;;;;;11.64;73.54;98965.91;4988797;28;20767;-50
2022/04/13 00:06:38;;;;;;;13.25;5.95;;;;;;;11.58;74.26;98964.22;4986866;28;20388;-51
2022/04/13 00:09:07;;;;;;;20.67;6.30;;;;;;;11.52;74.51;98978.69;4995301;28;20038;-50
2022/04/13 00:11:32;;;;;;;10.07;5.55;;;;;;;11.57;74.56;98976.84;4997492;28;20034;-53
2022/04/13 00:13:58;;;;;;;14.23;5.63;;;;;;;11.47;74.93;98987.50;4991818;28;20045;-52
2022/04/13 00:16:23;;;;;;;12.65;6.43;;;;;;;11.59;75.05;98979.28;4987621;28;20050;-53
2022/04/13 00:18:48;;;;;;;13.20;7.22;;;;;;;11.64;75.07;98982.00;4992403;28;20030;-53
2022/04/13 00:21:14;;;;;;;11.98;5.97;;;;;;;11.68;75.05;98974.25;4987727;28;20045;-50
2022/04/13 00:23:39;;;;;;;12.23;6.90;;;;;;;11.65;74.54;98973.69;4999077;28;20050;-50
2022/04/13 00:26:05;;;;;;;10.75;6.88;;;;;;;11.63;74.97;98988.44;4994173;28;20041;-53
2022/04/13 00:28:30;;;;;;;10.77;6.43;;;;;;;11.60;75.30;98980.91;4992719;28;20029;-53
2022/04/13 00:30:56;;;;;;;11.80;6.07;;;;;;;11.49;75.32;98985.38;4992998;28;20073;-52
2022/04/13 00:33:21;;;;;;;9.85;6.10;;;;;;;11.57;75.15;98990.28;4996083;28;20500;-50
2022/04/13 00:35:46;;;;;;;13.02;6.22;;;;;;;11.54;75.53;98987.28;4994420;28;20493;-50
2022/04/13 00:38:12;;;;;;;10.85;6.50;;;;;;;11.28;76.52;98991.59;4991681;28;20579;-51
2022/04/13 00:40:39;;;;;;;14.27;6.35;;;;;;;11.20;78.04;98987.47;4994592;28;20088;-53
2022/04/13 00:43:05;;;;;;;12.68;5.97;;;;;;;11.32;77.12;98985.47;4988481;28;20030;-53
2022/04/13 00:45:31;;;;;;;8.55;5.82;;;;;;;11.14;78.23;98980.47;4994081;28;20434;-51
2022/04/13 00:47:56;;;;;;;11.10;6.20;;;;;;;11.28;77.34;98989.72;4992776;28;20492;-52
2022/04/13 00:50:22;;;;;;;12.00;6.30;;;;;;;11.21;77.34;98989.13;4986449;28;20042;-50
2022/04/13 00:52:47;;;;;;;11.02;7.05;;;;;;;11.08;78.41;98989.50;4988996;28;20029;-52
2022/04/13 00:55:13;;;;;;;11.68;6.78;;;;;;;10.92;79.34;98978.59;4994728;28;20112;-52
2022/04/13 00:57:39;;;;;;;13.00;6.22;;;;;;;10.96;79.72;98978.94;4995322;28;20045;-52
2022/04/13 01:00:05;;;;;;;12.07;6.50;;;;;;;11.04;78.95;98988.41;4985976;28;20041;-53
2022/04/13 01:02:31;;;;;;;12.90;6.20;;;;;;;11.00;79.80;98990.75;4993064;28;20038;-51
2022/04/13 01:05:02;;;;;;;13.52;6.45;;;;;;;10.71;80.50;98990.16;4998377;28;20420;-53
2022/04/13 01:07:27;;;;;;;10.13;5.93;;;;;;;10.96;80.25;98985.09;4995842;28;20148;-52
2022/04/13 01:09:53;;;;;;;10.23;6.13;;;;;;;10.86;80.56;98990.34;4990668;28;20034;-50
2022/04/13 01:12:18;;;;;;;12.77;6.53;;;;;;;10.90;80.89;98999.47;4989551;28;20064;-50
2022/04/13 01:14:43;;;;;;;16.10;6.80;;;;;;;10.92;79.84;99008.09;4996409;28;20027;-51
2022/04/13 01:17:09;;;;;;;9.93;6.60;;;;;;;10.95;79.69;99002.22;4995083;28;20053;-52
2022/04/13 01:19:34;;;;;;;11.80;6.50;;;;;;;11.05;79.19;99000.72;4991304;28;20052;-51
2022/04/13 01:22:17;;;;;;;10.27;6.68;;;;;;;11.04;79.04;99005.28;4997880;28;20045;-52
2022/04/13 01:24:42;;;;;;;9.95;6.30;;;;;;;10.97;79.77;98994.75;4993383;28;20042;-53
2022/04/13 01:27:07;;;;;;;13.38;6.15;;;;;;;10.90;80.46;98985.28;4997770;28;20049;-53
2022/04/13 01:29:33;;;;;;;13.25;6.82;;;;;;;10.91;80.15;99001.13;4989286;28;20046;-52
2022/04/13 01:31:58;;;;;;;12.07;6.85;;;;;;;10.97;79.44;99002.78;4991349;28;20050;-50
2022/04/13 01:34:24;;;;;;;12.43;6.20;;;;;;;10.92;79.98;99013.47;4991215;28;20113;-51
2022/04/13 01:36:49;;;;;;;12.20;6.65;;;;;;;10.94;79.99;99005.97;4991556;28;20038;-52
2022/04/13 01:39:14;;;;;;;10.10;5.78;;;;;;;11.17;78.94;99020.19;4998345;28;20141;-53
2022/04/13 01:41:40;;;;;;;13.02;5.60;;;;;;;11.15;78.73;99022.31;4998145;28;20030;-52
2022/04/13 01:44:05;;;;;;;10.50;5.70;;;;;;;11.05;78.85;99030.22;4996735;28;20037;-53
2022/04/13 01:46:31;;;;;;;8.23;5.80;;;;;;;10.67;81.44;99031.91;4992259;28;20485;-53
2022/04/13 01:48:56;;;;;;;10.25;5.55;;;;;;;11.21;78.84;99032.03;5001965;28;20060;-52
2022/04/13 01:51:22;;;;;;;15.02;5.53;;;;;;;11.18;78.50;99030.66;4994780;28;20043;-52
2022/04/13 01:53:48;;;;;;;10.50;5.90;;;;;;;11.25;78.73;99025.09;4996556;28;20423;-53
2022/04/13 01:56:13;;;;;;;8.40;5.45;;;;;;;11.40;77.58;99013.72;4995173;28;20104;-50
2022/04/13 01:58:39;;;;;;;12.63;7.32;;;;;;;10.84;79.95;99032.66;4996660;28;20046;-50
2022/04/13 02:01:04;;;;;;;9.68;6.30;;;;;;;10.76;80.51;99031.22;4989601;28;20053;-50
2022/04/13 02:03:30;;;;;;;10.93;6.20;;;;;;;10.58;81.27;99035.03;4990543;28;20073;-51
2022/04/13 02:05:55;;;;;;;9.98;6.43;;;;;;;10.64;81.51;99035.91;4997943;28;20437;-52
2022/04/13 02:08:21;;;;;;;11.23;6.57;;;;;;;10.58;81.07;99032.34;4990209;28;20042;-52
2022/04/13 02:10:47;;;;;;;11.98;6.57;;;;;;;10.43;81.64;99025.94;4993125;28;20034;-52
2022/04/13 02:13:13;;;;;;;10.48;5.60;;;;;;;10.48;82.20;99040.25;4989747;28;20052;-50
2022/04/13 02:15:39;;;;;;;8.30;5.20;;;;;;;10.53;81.46;99037.63;4987994;28;20093;-52
2022/04/13 02:18:05;;;;;;;9.57;5.38;;;;;;;10.33;82.12;99035.47;4990392;28;20449;-53
2022/04/13 02:20:30;;;;;;;14.77;6.30;;;;;;;10.20;82.71;99043.78;4996903;28;20104;-52
2022/04/13 02:22:56;;;;;;;13.13;6.30;;;;;;;10.14;83.08;99042.09;4995736;28;20525;-53
2022/04/13 02:25:21;;;;;;;9.43;5.60;;;;;;;10.03;83.26;99037.63;4995632;28;20042;-52
2022/04/13 02:27:47;;;;;;;11.82;6.80;;;;;;;9.83;84.21;99041.56;4993365;28;20543;-52
2022/04/13 02:30:12;;;;;;;14.15;7.03;;;;;;;9.87;84.71;99047.28;4992985;28;20062;-51
2022/04/13 02:32:43;;;;;;;17.08;7.00;;;;;;;9.81;84.98;99053.59;4999812;28;20026;-51
2022/04/13 02:35:09;;;;;;;12.73;7.28;;;;;;;9.73;85.44;99060.13;4995481;28;20027;-50
2022/04/13 02:37:34;;;;;;;12.70;6.50;;;;;;;9.77;85.64;99061.28;4992397;28;20037;-53
2022/04/13 02:39:59;;;;;;;13.80;7.40;;;;;;;9.68;85.73;99052.88;4989899;28;20038;-51
2022/04/13 02:42:34;;;;;;;13.35;7.68;;;;;;;9.68;86.14;99060.88;4991560;28;20134;-53
2022/04/13 02:45:00;;;;;;;14.00;7.95;;;;;;;9.72;85.61;99058.53;4991566;28;20030;-50
2022/04/13 02:47:25;;;;;;;13.63;7.72;;;;;;;9.73;86.08;99060.13;4994434;28;20096;-53
2022/04/13 02:49:51;;;;;;;16.55;7.22;;;;;;;9.76;86.09;99064.19;4994900;28;20508;-53
2022/04/13 02:52:16;;;;;;;12.40;8.10;;;;;;;9.57;86.29;99066.28;4989775;28;20038;-52
2022/04/13 02:54:41;;;;;;;17.63;7.68;;;;;;;9.58;86.87;99059.88;4990189;28;20034;-52
2022/04/13 02:57:07;;;;;;;14.52;8.48;;;;;;;9.67;86.68;99053.91;4993389;28;20375;-53
2022/04/13 02:59:33;;;;;;;15.77;8.40;;;;;;;9.91;85.81;99051.91;4989216;28;20034;-51
2022/04/13 03:01:58;;;;;;;14.57;8.45;;;;;;;10.23;85.05;99047.84;4988842;28;20046;-52
2022/04/13 03:04:24;;;;;;;16.13;9.00;;;;;;;10.20;83.04;99042.97;4989354;28;20038;-50
2022/04/13 03:06:49;;;;;;;16.55;9.50;;;;;;;10.20;82.29;99059.06;4989060;28;20034;-53
2022/04/13 03:09:14;;;;;;;18.10;8.70;;;;;;;10.00;83.04;99062.22;4989829;28;20102;-50
2022/04/13 03:11:40;;;;;;;20.48;8.00;;;;;;;9.63;84.24;99058.09;4990710;28;20046;-52
2022/04/13 03:14:06;;;;;;;13.43;8.13;;;;;;;9.35;85.43;99066.13;4998016;28;20100;-52
2022/04/13 03:16:31;;;;;;;14.15;7.55;;;;;;;9.14;87.63;99068.41;4999888;28;20042;-51
2022/04/13 03:18:57;;;;;;;14.98;8.15;;;;;;;9.13;87.45;99072.13;4993426;28;20113;-53
2022/04/13 03:21:22;;;;;;;14.35;7.95;;;;;;;8.91;88.81;99063.94;4988989;28;20484;-53
2022/04/13 03:23:48;;;;;;;17.02;8.77;;;;;;;8.94;88.81;99073.34;4989265;28;20037;-51
2022/04/13 03:26:13;;;;;;;15.52;8.15;;;;;;;8.84;88.75;99064.06;4990629;28;20096;-51
2022/04/13 03:28:38;;;;;;;20.67;9.50;;;;;;;8.73;89.28;99072.09;4994400;28;20471;-53
2022/04/13 03:31:04;;;;;;;17.10;8.48;;;;;;;8.68;89.09;99075.44;4993402;28;20092;-55
2022/04/13 03:33:30;;;;;;;12.82;8.73;;;;;;;8.64;90.39;99072.44;4992227;28;20097;-55
2022/04/13 03:35:55;;;;;;;15.50;8.85;;;;;;;8.87;88.86;99081.50;4990248;28;20042;-53
2022/04/13 03:38:20;;;;;;;17.10;8.48;;;;;;;8.83;88.50;99080.31;4989133;28;20034;-54
2022/04/13 03:40:46;;;;;;;15.30;8.93;;;;;;;8.84;88.38;99077.44;4991792;28;20042;-53
2022/04/13 03:43:11;;;;;;;16.55;9.07;;;;;;;8.75;88.26;99084.16;4994045;28;20518;-51
2022/04/13 03:45:37;;;;;;;20.85;8.60;;;;;;;8.68;89.87;99075.44;4995463;28;20374;-52
2022/04/13 03:48:02;;;;;;;15.10;9.15;;;;;;;8.80;89.46;99076.25;4998489;28;20026;-54
2022/04/13 03:50:28;;;;;;;21.75;9.50;;;;;;;8.93;88.57;99074.38;4988899;28;20137;-51
2022/04/13 03:52:53;;;;;;;21.25;9.68;;;;;;;8.78;88.03;99074.88;4993103;28;20994;-53
2022/04/13 03:55:22;;;;;;;19.38;9.93;;;;;;;8.81;88.46;99072.56;4987149;28;20114;-53
2022/04/13 03:57:50;;;;;;;17.30;10.25;;;;;;;8.92;88.28;99070.09;4993694;28;20212;-54
2022/04/13 04:00:16;;;;;;;27.17;10.63;;;;;;;9.04;88.00;99070.88;4994686;28;20444;-53
2022/04/13 04:02:43;;;;;;;20.25;10.75;;;;;;;9.07;87.95;99068.53;4989153;28;20107;-53
2022/04/13 04:05:08;;;;;;;17.40;9.73;;;;;;;8.93;87.00;99067.16;4987006;28;20084;-53
2022/04/13 04:07:34;;;;;;;17.90;8.90;;;;;;;8.72;88.63;99068.59;4993377;28;20022;-54
2022/04/13 04:09:59;;;;;;;19.17;8.85;;;;;;;8.64;88.82;99072.44;4988441;28;20429;-52
2022/04/13 04:12:25;;;;;;;18.27;9.30;;;;;;;8.18;91.13;99076.69;4990600;28;20050;-54
2022/04/13 04:14:50;;;;;;;19.15;9.98;;;;;;;8.39;92.58;99075.34;4980423;28;20023;-52
2022/04/13 04:17:15;;;;;;;18.95;10.18;;;;;;;8.46;91.28;99082.44;4998139;28;20580;-53
2022/04/13 04:19:41;;;;;;;18.95;9.95;;;;;;;8.38;90.47;99073.69;4991261;28;20034;-53
2022/04/13 04:22:06;;;;;;;20.55;12.23;;;;;;;8.68;89.44;99090.69;4992631;28;20046;-53
2022/04/13 04:24:32;;;;;;;20.95;11.25;;;;;;;8.58;88.36;99083.25;4986839;28;20034;-53
2022/04/13 04:26:57;;;;;;;16.77;9.55;;;;;;;8.53;89.32;99088.47;4991991;28;20050;-53
2022/04/13 04:29:24;;;;;;;13.32;8.40;;;;;;;8.41;88.63;99094.63;4995441;28;20042;-53
2022/04/13 04:31:55;;;;;;;19.52;8.30;;;;;;;8.34;90.40;99093.91;4994970;28;20416;-52
2022/04/13 04:34:22;;;;;;;15.80;7.97;;;;;;;7.92;89.80;99098.47;4998572;28;20034;-51
2022/04/13 04:36:47;;;;;;;12.32;8.35;;;;;;;7.47;93.58;99086.38;4987887;28;20034;-54
2022/04/13 04:39:13;;;;;;;17.00;10.15;;;;;;;7.79;93.37;99088.81;4988542;28;20035;-55
2022/04/13 04:41:41;;;;;;;15.25;10.00;;;;;;;8.21;91.00;99099.44;4986440;28;20046;-51
2022/04/13 04:44:08;;;;;;;15.02;9.60;;;;;;;8.36;89.18;99099.84;4989236;28;20065;-53
2022/04/13 04:46:34;;;;;;;19.65;9.85;;;;;;;8.30;89.50;99100.75;4996937;28;20041;-53
2022/04/13 04:48:59;;;;;;;15.52;8.57;;;;;;;8.30;89.41;99105.28;4998277;28;20037;-53
2022/04/13 04:51:25;;;;;;;16.13;9.60;;;;;;;8.23;89.67;99110.72;5002732;28;20042;-53
2022/04/13 04:53:50;;;;;;;15.30;9.07;;;;;;;8.27;89.34;99117.22;4994230;28;20053;-53
2022/04/13 04:56:16;;;;;;;25.52;10.52;;;;;;;8.19;90.40;99105.03;4989872;28;20125;-53
2022/04/13 04:58:41;;;;;;;23.85;9.50;;;;;;;8.21;89.66;99108.28;4991431;28;20084;-54
2022/04/13 05:01:06;;;;;;;18.48;9.98;;;;;;;8.40;89.48;99106.34;4996111;28;20420;-53
2022/04/13 05:03:33;;;;;;;20.20;8.63;;;;;;;8.60;88.06;99110.53;5000850;28;20030;-54
2022/04/13 05:05:58;;;;;;;26.45;10.55;;;;;;;8.83;86.99;99115.88;5001028;28;20505;-53
2022/04/13 05:08:24;;;;;;;16.25;8.60;;;;;;;8.77;86.62;99119.50;4990188;28;20045;-53
2022/04/13 05:10:51;;;;;;;21.17;9.38;;;;;;;8.84;86.54;99122.06;4995282;28;20046;-51
2022/04/13 05:13:19;;;;;;;26.48;9.07;;;;;;;9.09;85.95;99113.78;4997731;28;20033;-54
2022/04/13 05:15:45;;;;;;;19.17;9.38;;;;;;;9.38;84.13;99121.81;4996835;28;20072;-52
2022/04/13 05:18:11;;;;;;;18.35;9.30;;;;;;;9.32;83.57;99117.44;4991353;28;20026;-52
2022/04/13 05:20:37;;;;;;;24.95;8.98;;;;;;;9.71;81.70;99124.63;4989727;28;20338;-52
2022/04/13 05:23:02;;;;;;;16.77;8.77;;;;;;;9.93;80.25;99124.78;4997953;28;20042;-51
2022/04/13 05:25:28;;;;;;;20.48;9.00;;;;;;;9.20;83.25;99125.47;4997867;28;20543;-51
2022/04/13 05:27:53;;;;;;;17.33;9.95;;;;;;;8.92;85.87;99124.38;4995090;28;20070;-53
2022/04/13 05:30:19;;;;;;;20.45;8.32;;;;;;;9.42;84.70;99129.16;4989175;28;20058;-53
2022/04/13 05:32:48;;;;;;;18.20;8.20;;;;;;;10.29;82.22;99130.75;4990696;28;20023;-52
2022/04/13 05:35:13;;;;;;;19.85;9.05;;;;;;;11.27;76.67;99129.50;4994206;28;20030;-53
2022/04/13 05:37:39;;;;;;;18.25;8.63;;;;;;;11.00;76.41;99132.88;4997421;28;20504;-54
2022/04/13 05:40:05;;;;;;;13.82;8.10;;;;;;;10.52;78.69;99137.00;4990849;28;20030;-52
2022/04/13 05:42:30;;;;;;;20.88;8.63;;;;;;;11.36;75.58;99136.06;4997907;28;20034;-53
2022/04/13 05:44:57;;;;;;;16.48;7.38;;;;;;;11.84;74.56;99143.31;4989671;28;20481;-53
2022/04/13 05:47:22;;;;;;;17.02;8.70;;;;;;;12.98;69.80;99145.88;4998526;28;20038;-53
2022/04/13 05:49:47;;;;;;;16.92;8.55;;;;;;;13.70;66.14;99155.09;4992626;28;20769;-53
2022/04/13 05:52:13;;;;;;;17.75;8.80;;;;;;;14.07;64.45;99156.81;5001091;28;20041;-52
2022/04/13 05:54:39;;;;;;;14.80;8.40;;;;;;;13.98;64.67;99164.63;4990760;28;20034;-53
2022/04/13 05:57:04;;;;;;;13.45;8.43;;;;;;;14.22;62.94;99166.81;4994280;28;20480;-53
2022/04/13 05:59:30;;;;;;;23.50;8.70;;;;;;;13.35;65.11;99169.22;4993784;28;20037;-54
2022/04/13 06:01:55;;;;;;;17.35;8.20;;;;;;;12.03;71.68;99167.13;4994681;28;20049;-54
2022/04/13 06:04:22;;;;;;;15.20;7.45;;;;;;;13.26;67.57;99173.47;5000047;28;20026;-54
2022/04/13 06:06:47;;;;;;;19.58;9.80;;;;;;;14.28;64.08;99179.22;4996601;28;20099;-53
2022/04/13 06:09:13;;;;;;;20.45;9.73;;;;;;;14.82;61.72;99189.50;4997001;28;20484;-54
2022/04/13 06:11:38;;;;;;;27.35;10.35;;;;;;;15.62;59.31;99191.47;4990387;28;20050;-52
2022/04/13 06:14:04;;;;;;;32.10;11.82;;;;;;;14.83;61.84;99196.53;4996641;28;20033;-52
2022/04/13 06:16:29;;;;;;;22.25;9.73;;;;;;;16.44;56.72;99195.66;5000346;28;20448;-53
2022/04/13 06:18:55;;;;;;;23.42;8.75;;;;;;;15.34;60.13;99190.22;4998177;28;20038;-52
2022/04/13 06:21:20;;;;;;;22.58;8.93;;;;;;;16.34;57.06;99191.94;4996744;28;20489;-54
2022/04/13 06:23:47;;;;;;;23.80;8.57;;;;;;;17.23;54.18;99196.34;5002086;28;20031;-54
2022/04/13 06:26:12;;;;;;;14.45;7.93;;;;;;;16.52;56.54;99198.56;4999326;28;20044;-54
2022/04/13 06:28:38;;;;;;;24.35;8.45;;;;;;;16.94;55.21;99201.75;5003496;28;20037;-53
2022/04/13 06:31:03;;;;;;;24.10;8.90;;;;;;;16.75;55.12;99202.44;4995025;28;20046;-53
2022/04/13 06:33:29;;;;;;;21.98;8.88;;;;;;;17.80;53.91;99210.09;4994861;28;20355;-54
2022/04/13 06:35:54;;;;;;;33.25;9.65;;;;;;;16.55;56.73;99203.41;4989787;28;20489;-53
2022/04/13 06:38:20;;;;;;;24.85;8.63;;;;;;;17.29;54.60;99206.03;4989605;28;20417;-54
2022/04/13 06:40:45;;;;;;;22.48;8.82;;;;;;;17.66;52.75;99216.16;4994465;28;20042;-54
2022/04/13 06:43:10;;;;;;;18.02;8.73;;;;;;;17.54;53.28;99212.25;4995203;28;20082;-51
2022/04/13 06:45:36;;;;;;;22.58;9.95;;;;;;;18.15;51.79;99211.53;4997157;28;20049;-53
2022/04/13 06:48:03;;;;;;;20.98;8.68;;;;;;;18.40;51.48;99221.19;4992375;28;20488;-54
2022/04/13 06:50:28;;;;;;;19.10;8.88;;;;;;;18.65;50.39;99224.63;4987543;28;20528;-54
2022/04/13 06:52:53;;;;;;;23.58;9.40;;;;;;;19.16;48.82;99232.72;4995987;28;20371;-52
2022/04/13 06:55:19;;;;;;;19.45;8.32;;;;;;;18.58;50.37;99230.41;4991518;28;20054;-54
2022/04/13 06:57:44;;;;;;;21.77;8.75;;;;;;;19.14;49.24;99236.84;4994023;28;20073;-53
2022/04/13 07:00:11;;;;;;;15.73;8.20;;;;;;;19.75;47.67;99252.03;4993335;28;20026;-54
2022/04/13 07:02:37;;;;;;;17.33;7.35;;;;;;;19.56;47.02;99254.81;4994984;28;20022;-53
2022/04/13 07:05:03;;;;;;;17.45;7.53;;;;;;;19.12;48.45;99256.19;4991848;28;20129;-53
2022/04/13 07:07:29;;;;;;;20.27;7.80;;;;;;;18.42;50.22;99256.97;4992132;28;20084;-54
2022/04/13 07:09:55;;;;;;;18.48;8.38;;;;;;;17.80;50.96;99254.25;4988468;28;20030;-54
2022/04/13 07:12:20;;;;;;;20.25;7.90;;;;;;;16.98;53.68;99244.22;4978354;28;20038;-52
2022/04/13 07:14:46;;;;;;;16.75;7.78;;;;;;;16.71;54.44;99254.72;4978372;28;20091;-56
2022/04/13 07:17:11;;;;;;;17.50;6.88;;;;;;;16.34;55.08;99253.31;4995038;28;20369;-50
2022/04/13 07:19:37;;;;;;;16.85;7.57;;;;;;;17.28;53.58;99258.59;4991076;28;20026;-50
2022/04/13 07:22:02;;;;;;;14.43;6.65;;;;;;;17.13;53.62;99264.94;4997903;28;20038;-54
2022/04/13 07:24:28;;;;;;;19.23;7.75;;;;;;;18.14;51.09;99256.00;4994903;28;20032;-53
2022/04/13 07:26:54;;;;;;;18.63;7.25;;;;;;;18.65;49.93;99266.13;4990988;28;20408;-53
2022/04/13 07:29:19;;;;;;;19.02;8.00;;;;;;;18.78;49.74;99267.31;4990917;28;20054;-53
2022/04/13 07:31:45;;;;;;;18.60;7.70;;;;;;;18.51;50.12;99262.53;4993589;28;20096;-54
2022/04/13 07:34:10;;;;;;;18.95;7.13;;;;;;;18.58;50.40;99259.47;4999496;28;20030;-53
2022/04/13 07:36:36;;;;;;;25.30;6.72;;;;;;;18.42;49.98;99259.69;4987183;28;20053;-50
2022/04/13 07:39:02;;;;;;;23.15;7.20;;;;;;;17.92;51.22;99255.75;4992539;28;20030;-51
2022/04/13 07:41:28;;;;;;;14.38;7.38;;;;;;;18.26;51.41;99253.66;4992905;28;20049;-52
2022/04/13 07:43:55;;;;;;;29.50;8.23;;;;;;;19.27;48.83;99257.81;4991057;28;20037;-54
2022/04/13 07:46:21;;;;;;;17.15;8.20;;;;;;;18.55;49.82;99269.00;4988447;28;20049;-54
2022/04/13 07:48:46;;;;;;;19.90;8.13;;;;;;;18.44;51.72;99265.63;4988052;28;20030;-53
2022/04/13 07:51:12;;;;;;;15.95;7.15;;;;;;;19.06;50.46;99262.00;4992813;28;20378;-53
2022/04/13 07:53:37;;;;;;;17.23;7.78;;;;;;;20.07;47.78;99263.09;4994477;28;20029;-54
2022/04/13 07:56:03;;;;;;;14.50;7.10;;;;;;;19.85;47.96;99270.06;4994595;28;20053;-51
2022/04/13 07:58:28;;;;;;;20.33;7.35;;;;;;;20.52;46.54;99263.19;5000437;28;20030;-54
2022/04/13 08:00:55;;;;;;;19.13;8.10;;;;;;;20.71;45.85;99269.31;4989645;28;20045;-52
2022/04/13 08:03:20;;;;;;;18.48;7.90;;;;;;;20.93;45.70;99267.72;4991436;28;20034;-52
2022/04/13 08:05:45;;;;;;;14.05;7.07;;;;;;;20.54;45.75;99269.13;4986477;28;20052;-49
2022/04/13 08:08:11;;;;;;;24.15;7.15;;;;;;;20.09;46.39;99266.31;4993102;28;20034;-50
2022/04/13 08:10:36;;;;;;;30.90;7.13;;;;;;;20.15;46.58;99268.63;4991571;28;20049;-50
2022/04/13 08:13:02;;;;;;;30.42;6.97;;;;;;;20.13;46.27;99267.34;4994505;28;20042;-50
2022/04/13 08:15:27;;;;;;;27.95;6.95;;;;;;;19.46;48.09;99276.75;4985933;28;20061;-53
2022/04/13 08:17:53;;;;;;;37.35;7.18;;;;;;;20.82;46.11;99262.53;4986270;28;20030;-51
2022/04/13 08:20:18;;;;;;;24.60;6.90;;;;;;;21.29;44.29;99264.88;4987802;28;20026;-51
2022/04/13 08:22:44;;;;;;;37.08;7.55;;;;;;;19.51;47.65;99268.50;5002010;28;20084;-50
2022/04/13 08:25:09;;;;;;;32.70;7.50;;;;;;;18.60;51.18;99271.66;4999608;28;20097;-54
2022/04/13 08:27:35;;;;;;;54.17;8.10;;;;;;;18.74;51.37;99272.50;4991336;28;20083;-51
2022/04/13 08:30:00;;;;;;;46.15;8.05;;;;;;;19.76;49.85;99277.31;4998085;28;20053;-53
2022/04/13 08:32:25;;;;;;;37.70;7.03;;;;;;;19.84;49.16;99273.88;4991610;28;20428;-51
2022/04/13 08:34:54;;;;;;;32.00;7.95;;;;;;;20.19;48.63;99271.53;4997232;28;20385;-50
2022/04/13 08:37:23;;;;;;;43.35;7.45;;;;;;;21.20;46.84;99275.75;4997399;28;20080;-51
2022/04/13 08:39:49;;;;;;;20.98;6.93;;;;;;;20.70;48.32;99275.88;5002332;28;20042;-52
2022/04/13 08:42:21;;;;;;;31.40;7.65;;;;;;;21.14;47.41;99282.44;5003387;28;20048;-52
2022/04/13 08:44:48;;;;;;;27.52;7.00;;;;;;;21.20;46.60;99292.09;4985407;28;20121;-52
2022/04/13 08:47:20;;;;;;;24.00;7.32;;;;;;;21.89;44.22;99297.13;4991292;28;20078;-50
2022/04/13 08:49:45;;;;;;;29.90;7.57;;;;;;;21.79;45.05;99297.41;4997632;28;20448;-51
2022/04/13 08:52:13;;;;;;;26.50;7.65;;;;;;;21.26;45.96;99304.47;4991348;28;20675;-50
2022/04/13 08:54:54;;;;;;;26.60;7.30;;;;;;;20.68;47.47;99299.88;4997259;28;20049;-54
2022/04/13 08:57:20;;;;;;;23.33;7.72;;;;;;;19.85;50.17;99302.72;4995373;28;20046;-53
2022/04/13 08:59:59;;;;;;;20.92;7.20;;;;;;;20.90;48.19;99297.19;4990257;28;20026;-50
2022/04/13 09:02:53;;;;;;;33.15;7.55;;;;;;;20.78;48.25;99298.84;4989974;28;20057;-54
2022/04/13 09:05:27;;;;;;;27.60;6.47;;;;;;;21.54;46.75;99298.88;4990771;28;20369;-51
2022/04/13 09:08:05;;;;;;;30.02;7.40;;;;;;;21.95;46.54;99295.03;4994657;28;20026;-53
2022/04/13 09:10:31;;;;;;;20.73;6.38;;;;;;;22.40;44.72;99300.31;5001594;28;20060;-52
2022/04/13 09:12:57;;;;;;;19.23;6.85;;;;;;;20.93;47.06;99312.09;4990332;28;20089;-54
2022/04/13 09:15:22;;;;;;;20.90;6.80;;;;;;;20.44;48.19;99306.38;4973783;28;20042;-54
2022/04/13 09:17:48;;;;;;;25.15;7.53;;;;;;;21.10;47.68;99311.44;4996038;28;20026;-54
2022/04/13 09:20:13;;;;;;;21.27;6.70;;;;;;;20.36;49.53;99309.00;4979708;28;20022;-53
2022/04/13 09:22:39;;;;;;;25.10;6.72;;;;;;;22.00;46.28;99315.94;4990108;28;20104;-52
2022/04/13 09:25:05;;;;;;;20.08;6.00;;;;;;;22.10;45.94;99310.97;4978812;28;20037;-53
2022/04/13 09:27:31;;;;;;;25.50;6.28;;;;;;;23.42;43.93;99327.13;4997647;28;20057;-51
2022/04/13 09:29:57;;;;;;;26.08;6.30;;;;;;;23.11;43.33;99323.81;4995705;28;20050;-53
2022/04/13 09:32:23;;;;;;;20.88;7.05;;;;;;;22.81;43.74;99315.44;4998805;28;20493;-54
2022/04/13 09:34:49;;;;;;;21.77;7.30;;;;;;;22.08;45.21;99324.13;4989940;28;20050;-54
2022/04/13 09:37:15;;;;;;;20.05;6.47;;;;;;;22.11;46.37;99318.03;4990454;28;20038;-52
2022/04/13 09:39:40;;;;;;;35.03;7.13;;;;;;;22.58;44.87;99331.97;4994686;28;20029;-54
2022/04/13 09:42:06;;;;;;;28.38;7.13;;;;;;;22.54;44.55;99336.47;4979391;28;20045;-54
2022/04/13 09:44:33;;;;;;;27.67;7.45;;;;;;;21.72;47.11;99327.84;4990775;28;20038;-52
2022/04/13 09:47:08;;;;;;;23.77;7.43;;;;;;;20.84;48.20;99336.56;4994650;28;20074;-51
2022/04/13 09:49:34;;;;;;;26.30;7.43;;;;;;;22.13;47.02;99332.16;4995607;28;20571;-53
2022/04/13 09:52:00;;;;;;;22.75;7.05;;;;;;;22.70;44.87;99333.28;4996616;28;20054;-54
2022/04/13 09:54:26;;;;;;;22.63;7.10;;;;;;;22.49;45.42;99333.91;4998975;28;20037;-52
2022/04/13 09:56:51;;;;;;;26.13;6.75;;;;;;;22.54;45.41;99331.03;4990531;28;20358;-52
2022/04/13 09:59:32;;;;;;;21.48;6.53;;;;;;;22.39;45.63;99329.56;4990186;28;20046;-52
2022/04/13 10:02:00;;;;;;;21.83;6.13;;;;;;;21.08;48.57;99335.47;4997962;28;20449;-53
2022/04/13 10:04:26;;;;;;;26.65;6.28;;;;;;;20.76;49.30;99323.66;4989171;28;20036;-53
2022/04/13 10:06:52;;;;;;;25.98;7.00;;;;;;;21.82;46.77;99324.06;4996281;28;20089;-50
2022/04/13 10:09:19;;;;;;;25.33;6.97;;;;;;;21.08;47.46;99328.06;4998717;28;20033;-51
2022/04/13 10:12:01;;;;;;;25.83;6.80;;;;;;;20.84;49.22;99325.66;4994858;28;20045;-54
2022/04/13 10:14:26;;;;;;;19.35;6.32;;;;;;;20.67;50.54;99306.47;4997170;28;20034;-53
2022/04/13 10:16:52;;;;;;;15.52;5.60;;;;;;;20.79;48.06;99311.34;4990076;28;20045;-54
2022/04/13 10:19:18;;;;;;;19.75;6.68;;;;;;;20.34;49.28;99306.59;4990336;28;20034;-53
2022/04/13 10:21:51;;;;;;;24.35;7.00;;;;;;;20.91;48.85;99308.88;4995233;28;20587;-54
2022/04/13 10:24:29;;;;;;;15.60;6.10;;;;;;;21.33;47.35;99302.09;5001039;28;20101;-53
2022/04/13 10:27:03;;;;;;;22.67;6.22;;;;;;;21.32;47.94;99316.06;4997245;28;20061;-53
2022/04/13 10:29:29;;;;;;;28.25;5.82;;;;;;;21.29;47.28;99309.31;4989908;28;20054;-53
2022/04/13 10:32:07;;;;;;;23.67;5.75;;;;;;;22.32;45.23;99314.75;4989633;28;20034;-53
2022/04/13 10:34:39;;;;;;;20.92;6.40;;;;;;;22.35;45.39;99308.66;4994283;28;20030;-53
2022/04/13 10:37:05;;;;;;;31.02;5.93;;;;;;;23.44;43.02;99313.94;4988310;28;20062;-54
2022/04/13 10:39:31;;;;;;;28.00;5.90;;;;;;;22.67;44.06;99312.06;4977981;28;20034;-54
2022/04/13 10:41:57;;;;;;;26.23;6.30;;;;;;;23.44;43.05;99324.88;4996124;28;20038;-52
2022/04/13 10:44:33;;;;;;;20.00;5.22;;;;;;;22.97;43.92;99321.22;4994647;28;20034;-54
2022/04/13 10:47:02;;;;;;;18.80;5.65;;;;;;;23.33;43.47;99323.63;4988233;28;20093;-54
2022/04/13 10:49:30;;;;;;;24.80;6.68;;;;;;;23.66;42.35;99326.59;4990162;28;20876;-54
2022/04/13 10:51:56;;;;;;;23.58;6.03;;;;;;;22.73;44.56;99327.97;4992329;28;20560;-54
2022/04/13 10:54:21;;;;;;;17.35;5.32;;;;;;;23.75;42.57;99321.09;4978161;28;20030;-54
2022/04/13 10:56:50;;;;;;;24.20;5.00;;;;;;;23.98;41.40;99326.31;4986512;28;20076;-53
2022/04/13 10:59:18;;;;;;;20.47;4.80;;;;;;;23.59;42.99;99320.03;4975489;28;20034;-54
2022/04/13 11:01:58;;;;;;;23.92;5.68;;;;;;;23.89;42.06;99321.69;4994240;28;20046;-54
2022/04/13 11:04:23;;;;;;;19.10;5.18;;;;;;;23.94;41.66;99325.38;4994609;28;20045;-54
2022/04/13 11:06:49;;;;;;;19.25;5.30;;;;;;;22.56;43.94;99317.03;4987842;28;20046;-53
2022/04/13 11:09:28;;;;;;;23.55;5.18;;;;;;;22.26;44.12;99321.47;4993243;28;20042;-54
2022/04/13 11:11:54;;;;;;;24.52;4.85;;;;;;;22.73;42.64;99318.97;4981778;28;20137;-51
2022/04/13 11:14:20;;;;;;;20.88;5.07;;;;;;;21.56;44.45;99307.56;4993804;28;20032;-52
2022/04/13 11:16:46;;;;;;;20.67;4.72;;;;;;;21.83;45.62;99305.75;4994273;28;20042;-51
2022/04/13 11:19:11;;;;;;;21.70;4.95;;;;;;;22.18;43.03;99315.66;4999858;28;20041;-51
2022/04/13 11:21:52;;;;;;;24.40;4.50;;;;;;;23.04;42.12;99316.91;4988520;28;20049;-53
2022/04/13 11:24:34;;;;;;;24.27;4.75;;;;;;;23.38;40.77;99320.69;4989003;28;20038;-53